createdAt,value
2023-01-17T19:41:49.583Z,48.00
2023-01-17T19:44:16.341Z,42.75
2023-01-17T19:46:43.933Z,51.53
2023-01-17T19:49:10.728Z,51.03
2023-01-17T19:51:39.421Z,45.22
2023-01-17T19:54:07.996Z,45.05
2023-01-17T19:56:35.153Z,49.53
2023-01-17T19:59:02.385Z,42.95
2023-01-17T20:01:32.192Z,44.47
2023-01-17T20:04:00.037Z,46.10
2023-01-17T20:06:29.099Z,48.78
2023-01-17T20:08:56.239Z,48.15
2023-01-17T20:11:25.228Z,47.10
2023-01-17T20:13:54.378Z,51.78
2023-01-17T20:16:22.034Z,45.38
2023-01-17T20:18:49.618Z,47.95
2023-01-17T20:21:21.528Z,48.17
2023-01-17T20:23:50.176Z,50.30
2023-01-17T20:26:35.071Z,52.35
2023-01-17T20:29:04.537Z,49.72
2023-01-17T20:31:32.328Z,53.05
2023-01-17T20:33:59.064Z,50.75
2023-01-17T20:36:29.019Z,56.65
2023-01-17T20:38:57.191Z,50.47
2023-01-17T20:41:25.841Z,52.78
2023-01-17T20:43:55.386Z,44.75
2023-01-17T20:46:23.894Z,51.45
2023-01-17T20:48:53.134Z,55.28
2023-01-17T20:51:20.660Z,51.58
2023-01-17T20:53:51.553Z,55.45
2023-01-17T20:56:19.100Z,45.92
2023-01-17T20:58:45.888Z,51.10
2023-01-17T21:01:13.854Z,50.03
2023-01-17T21:03:40.705Z,48.83
2023-01-17T21:06:09.484Z,48.97
2023-01-17T21:08:40.770Z,47.72
2023-01-17T21:11:08.954Z,57.97
2023-01-17T21:13:35.623Z,43.92
2023-01-17T21:16:02.559Z,43.78
2023-01-17T21:18:31.989Z,51.55
2023-01-17T21:21:04.047Z,45.83
2023-01-17T21:23:30.704Z,49.30
2023-01-17T21:25:57.944Z,43.65
2023-01-17T21:28:27.567Z,44.38
2023-01-17T21:30:54.573Z,55.35
2023-01-17T21:33:24.441Z,53.75
2023-01-17T21:35:51.293Z,53.72
2023-01-17T21:38:18.068Z,43.10
2023-01-17T21:40:45.233Z,51.08
2023-01-17T21:43:12.188Z,52.83
2023-01-17T21:45:39.383Z,64.03
2023-01-17T21:48:07.268Z,48.65
2023-01-17T21:50:34.499Z,54.22
2023-01-17T21:53:01.237Z,55.85
2023-01-17T21:55:46.450Z,53.33
2023-01-17T21:58:33.171Z,56.10
2023-01-17T22:01:09.064Z,57.20
2023-01-17T22:03:36.451Z,63.47
2023-01-17T22:06:05.019Z,64.95
2023-01-17T22:08:33.082Z,54.22
2023-01-17T22:11:07.605Z,59.03
2023-01-17T22:13:35.382Z,50.92
2023-01-17T22:16:04.277Z,56.88
2023-01-17T22:18:32.950Z,60.25
2023-01-17T22:21:04.310Z,64.75
2023-01-17T22:23:31.025Z,76.15
2023-01-17T22:26:05.692Z,67.93
2023-01-17T22:28:33.538Z,55.03
2023-01-17T22:31:14.669Z,55.20
2023-01-17T22:33:43.338Z,69.78
2023-01-17T22:36:11.287Z,66.93
2023-01-17T22:38:37.861Z,68.47
2023-01-17T22:41:09.802Z,69.40
2023-01-17T22:43:41.980Z,72.32
2023-01-17T22:46:11.135Z,70.57
2023-01-17T22:48:38.973Z,69.88
2023-01-17T22:51:14.173Z,66.05
2023-01-17T22:53:45.223Z,71.38
2023-01-17T22:56:14.935Z,84.93
2023-01-17T22:58:44.823Z,78.30
2023-01-17T23:01:17.223Z,74.30
2023-01-17T23:03:44.809Z,84.03
2023-01-17T23:06:12.874Z,75.40
2023-01-17T23:08:42.481Z,75.53
2023-01-17T23:11:37.082Z,87.55
2023-01-17T23:14:03.818Z,89.88
2023-01-17T23:16:49.187Z,90.43
2023-01-17T23:19:24.873Z,84.95
2023-01-17T23:22:12.732Z,89.53
2023-01-17T23:24:43.103Z,89.50
2023-01-17T23:27:42.054Z,90.60
2023-01-17T23:30:11.863Z,83.63
2023-01-17T23:32:39.922Z,70.63
2023-01-17T23:35:07.266Z,78.82
2023-01-17T23:37:52.611Z,83.85
2023-01-17T23:40:19.632Z,80.05
2023-01-17T23:43:05.001Z,76.20
2023-01-17T23:45:34.971Z,82.47
2023-01-17T23:48:02.129Z,80.72
2023-01-17T23:50:28.834Z,74.68
2023-01-17T23:52:55.807Z,82.32
2023-01-17T23:55:23.241Z,74.88
2023-01-17T23:57:51.650Z,81.47
